Time;durP1;ratioP1;P1;durP2;ratioP2;P2;SDS_P1;SDS_P2;PMS_P1;PMS_P2;Temp;Humidity;BMP_temperature;BMP_pressure;BME280_temperature;BME280_humidity;BME280_pressure;Samples;Min_cycle;Max_cycle;Signal;HPM_P1;HPM_P2
2023/05/24 00:00:52;;;;;;;;;;;13.70;81.40;;;;;;4987552;28;20477;-64
2023/05/24 00:03:17;;;;;;;;;;;13.70;81.40;;;;;;4986992;28;20358;-64
2023/05/24 00:05:45;;;;;;;;;;;13.70;81.40;;;;;;4987737;28;19925;-64
2023/05/24 00:08:11;;;;;;;;;;;13.60;81.40;;;;;;4986871;28;19917;-64
2023/05/24 00:10:37;;;;;;;;;;;13.60;81.40;;;;;;4987556;28;19910;-64
2023/05/24 00:13:02;;;;;;;;;;;13.60;81.60;;;;;;4986944;28;20370;-64
2023/05/24 00:15:28;;;;;;;;;;;13.60;81.50;;;;;;4987163;28;19968;-64
2023/05/24 00:17:53;;;;;;;;;;;13.50;81.50;;;;;;4985456;28;19921;-64
2023/05/24 00:20:19;;;;;;;;;;;13.50;81.50;;;;;;4987411;28;19914;-64
2023/05/24 00:22:45;;;;;;;;;;;13.50;81.60;;;;;;4986886;28;19921;-64
2023/05/24 00:25:10;;;;;;;;;;;13.50;81.70;;;;;;4987316;28;20290;-64
2023/05/24 00:27:36;;;;;;;;;;;13.50;81.60;;;;;;4987177;28;19914;-63
2023/05/24 00:30:02;;;;;;;;;;;13.50;81.60;;;;;;4985911;28;19910;-64
2023/05/24 00:32:27;;;;;;;;;;;13.50;81.70;;;;;;4986653;28;19913;-64
2023/05/24 00:34:53;;;;;;;;;;;13.40;81.50;;;;;;4987164;28;20525;-64
2023/05/24 00:37:18;;;;;;;;;;;13.40;81.60;;;;;;4986862;28;19961;-64
2023/05/24 00:39:44;;;;;;;;;;;13.40;81.60;;;;;;4987249;28;20005;-64
2023/05/24 00:42:10;;;;;;;;;;;13.40;81.60;;;;;;4981741;28;19958;-64
2023/05/24 00:44:35;;;;;;;;;;;13.30;81.60;;;;;;4986653;28;20370;-64
2023/05/24 00:47:01;;;;;;;;;;;13.40;81.60;;;;;;4986553;28;20027;-64
2023/05/24 00:49:26;;;;;;;;;;;13.30;81.70;;;;;;4987016;28;20635;-64
2023/05/24 00:51:52;;;;;;;;;;;13.30;81.70;;;;;;4986436;28;19918;-64
2023/05/24 00:54:18;;;;;;;;;;;13.30;81.70;;;;;;4986866;28;20465;-64
2023/05/24 00:56:43;;;;;;;;;;;13.30;81.70;;;;;;4986703;28;20710;-64
2023/05/24 00:59:09;;;;;;;;;;;13.20;81.70;;;;;;4986975;28;19918;-64
2023/05/24 01:01:36;;;;;;;;;;;13.20;81.70;;;;;;4986494;28;19949;-64
2023/05/24 01:04:01;;;;;;;;;;;13.20;81.80;;;;;;4986347;28;19984;-64
2023/05/24 01:06:27;;;;;;;;;;;13.20;81.80;;;;;;4986653;28;19940;-64
2023/05/24 01:08:53;;;;;;;;;;;13.20;81.80;;;;;;4986625;28;19945;-64
2023/05/24 01:11:38;;;;;;;;;;;13.10;81.80;;;;;;4986445;28;19913;-64
2023/05/24 01:14:04;;;;;;;;;;;13.10;81.90;;;;;;5024952;28;19916;-64
2023/05/24 01:16:39;;;;;;;;;;;13.10;81.90;;;;;;4984954;28;19937;-64
2023/05/24 01:19:21;;;;;;;;;;;13.10;82.00;;;;;;4986413;28;19914;-64
2023/05/24 01:21:58;;;;;;;;;;;13.10;81.90;;;;;;4986006;28;19917;-64
2023/05/24 01:24:36;;;;;;;;;;;13.00;81.80;;;;;;4986783;28;20099;-64
2023/05/24 01:27:02;;;;;;;;;;;13.00;81.90;;;;;;4986262;28;20010;-64
2023/05/24 01:29:28;;;;;;;;;;;13.00;82.00;;;;;;4985187;28;19938;-64
2023/05/24 01:31:54;;;;;;;;;;;13.00;82.00;;;;;;4984662;28;20378;-64
2023/05/24 01:34:19;;;;;;;;;;;13.00;82.00;;;;;;4986384;28;19914;-64
2023/05/24 01:36:45;;;;;;;;;;;12.90;81.90;;;;;;4986239;28;19933;-64
2023/05/24 01:39:11;;;;;;;;;;;12.90;82.00;;;;;;4986318;28;19960;-64
2023/05/24 01:41:46;;;;;;;;;;;12.90;82.10;;;;;;4981421;28;19972;-64
2023/05/24 01:44:32;;;;;;;;;;;12.90;82.10;;;;;;4986138;28;20432;-63
2023/05/24 01:47:01;;;;;;;;;;;12.90;82.20;;;;;;4995826;28;19996;-64
2023/05/24 01:49:31;;;;;;;;;;;12.90;82.20;;;;;;4984907;28;20000;-64
2023/05/24 01:52:06;;;;;;;;;;;12.90;82.20;;;;;;4984456;28;19914;-64
2023/05/24 01:54:35;;;;;;;;;;;12.80;82.20;;;;;;4986233;28;19918;-64
2023/05/24 01:57:03;;;;;;;;;;;12.80;82.20;;;;;;4985741;28;19948;-64
2023/05/24 01:59:28;;;;;;;;;;;12.80;82.20;;;;;;4986311;28;20021;-64
2023/05/24 02:01:54;;;;;;;;;;;12.70;82.20;;;;;;4985562;28;20053;-64
2023/05/24 02:04:20;;;;;;;;;;;12.80;82.40;;;;;;4984647;28;19918;-64
2023/05/24 02:06:45;;;;;;;;;;;12.70;82.50;;;;;;4986120;28;20569;-64
2023/05/24 02:09:11;;;;;;;;;;;12.70;82.20;;;;;;4986061;28;19976;-64
2023/05/24 02:11:36;;;;;;;;;;;12.70;82.30;;;;;;4985856;28;20530;-64
2023/05/24 02:14:02;;;;;;;;;;;12.70;82.20;;;;;;4985548;28;19914;-64
2023/05/24 02:16:29;;;;;;;;;;;12.70;82.30;;;;;;4985843;28;19914;-64
2023/05/24 02:18:55;;;;;;;;;;;12.70;82.30;;;;;;4985814;28;19913;-64
2023/05/24 02:21:22;;;;;;;;;;;12.70;82.30;;;;;;4985755;28;20500;-64
2023/05/24 02:23:47;;;;;;;;;;;12.70;82.30;;;;;;4985178;28;19918;-64
2023/05/24 02:26:13;;;;;;;;;;;12.60;82.40;;;;;;4985574;28;19914;-64
2023/05/24 02:28:39;;;;;;;;;;;12.60;82.40;;;;;;4985473;28;20441;-64
2023/05/24 02:31:05;;;;;;;;;;;12.60;82.40;;;;;;4987495;28;19914;-64
2023/05/24 02:33:30;;;;;;;;;;;12.60;82.40;;;;;;4987148;28;19953;-64
2023/05/24 02:35:56;;;;;;;;;;;12.60;82.40;;;;;;4988849;28;19920;-64
2023/05/24 02:38:21;;;;;;;;;;;12.50;82.40;;;;;;4988743;28;19920;-64
2023/05/24 02:40:47;;;;;;;;;;;12.50;82.50;;;;;;4988027;28;20264;-64
2023/05/24 02:43:12;;;;;;;;;;;12.50;82.40;;;;;;4982803;28;19922;-64
2023/05/24 02:45:38;;;;;;;;;;;12.50;82.40;;;;;;4988693;28;19918;-64
2023/05/24 02:48:03;;;;;;;;;;;12.50;82.40;;;;;;4987213;28;19914;-64
2023/05/24 02:50:29;;;;;;;;;;;12.50;82.60;;;;;;4988841;28;20664;-64
2023/05/24 02:52:55;;;;;;;;;;;12.50;82.60;;;;;;4988414;28;19914;-64
2023/05/24 02:55:21;;;;;;;;;;;12.40;82.50;;;;;;4988690;28;20309;-64
2023/05/24 02:57:46;;;;;;;;;;;12.40;83.20;;;;;;4988225;28;19910;-64
2023/05/24 03:00:12;;;;;;;;;;;12.40;82.50;;;;;;4988570;28;19918;-64
2023/05/24 03:02:39;;;;;;;;;;;12.40;82.50;;;;;;4988017;28;20005;-64
2023/05/24 03:05:08;;;;;;;;;;;12.40;82.60;;;;;;4988840;28;20400;-64
2023/05/24 03:07:33;;;;;;;;;;;12.40;82.60;;;;;;4988178;28;19920;-64
2023/05/24 03:09:59;;;;;;;;;;;12.40;82.60;;;;;;4988452;28;19914;-64
2023/05/24 03:12:24;;;;;;;;;;;12.40;82.60;;;;;;5017463;28;19916;-64
2023/05/24 03:14:50;;;;;;;;;;;12.30;82.60;;;;;;5052658;28;19920;-64
2023/05/24 03:17:15;;;;;;;;;;;12.30;82.60;;;;;;4987823;28;19967;-64
2023/05/24 03:19:41;;;;;;;;;;;12.30;82.70;;;;;;4988597;28;19910;-64
2023/05/24 03:22:06;;;;;;;;;;;12.30;82.70;;;;;;4987894;28;20359;-64
2023/05/24 03:24:33;;;;;;;;;;;12.30;82.70;;;;;;5034690;28;19920;-64
2023/05/24 03:26:58;;;;;;;;;;;12.20;82.70;;;;;;4987735;28;19945;-64
2023/05/24 03:29:24;;;;;;;;;;;12.20;82.70;;;;;;4988094;28;19949;-64
2023/05/24 03:31:49;;;;;;;;;;;12.20;82.70;;;;;;4987705;28;20451;-64
2023/05/24 03:34:15;;;;;;;;;;;12.20;82.70;;;;;;4988164;28;19910;-64
2023/05/24 03:36:40;;;;;;;;;;;12.20;82.70;;;;;;4987960;28;19916;-64
2023/05/24 03:39:06;;;;;;;;;;;12.20;82.80;;;;;;4986361;28;19913;-64
2023/05/24 03:41:32;;;;;;;;;;;12.20;82.80;;;;;;4982779;28;19917;-64
2023/05/24 03:43:58;;;;;;;;;;;12.20;82.80;;;;;;4984556;28;19913;-64
2023/05/24 03:46:23;;;;;;;;;;;12.10;82.70;;;;;;4988765;28;19910;-64
2023/05/24 03:48:49;;;;;;;;;;;12.20;82.90;;;;;;5022112;28;19925;-64
2023/05/24 03:51:14;;;;;;;;;;;12.10;82.90;;;;;;5071304;28;20015;-64
2023/05/24 03:53:40;;;;;;;;;;;12.10;82.90;;;;;;5045859;28;20274;-64
2023/05/24 03:56:05;;;;;;;;;;;12.10;82.90;;;;;;4987483;28;19914;-64
2023/05/24 03:58:31;;;;;;;;;;;12.10;82.90;;;;;;4987630;28;20370;-64
2023/05/24 04:00:56;;;;;;;;;;;12.10;82.90;;;;;;4987475;28;19917;-64
2023/05/24 04:03:24;;;;;;;;;;;12.10;82.90;;;;;;4985465;28;19918;-64
2023/05/24 04:05:50;;;;;;;;;;;12.10;82.90;;;;;;4987315;28;20390;-64
2023/05/24 04:08:15;;;;;;;;;;;12.00;82.90;;;;;;4987451;28;19913;-64
2023/05/24 04:10:41;;;;;;;;;;;12.10;83.00;;;;;;4987400;28;19945;-64
2023/05/24 04:13:07;;;;;;;;;;;12.00;82.90;;;;;;4985538;28;19913;-64
2023/05/24 04:15:32;;;;;;;;;;;12.00;83.00;;;;;;4985463;28;19918;-64
2023/05/24 04:17:59;;;;;;;;;;;12.00;83.00;;;;;;4986517;28;19975;-64
2023/05/24 04:20:26;;;;;;;;;;;12.00;83.00;;;;;;4986655;28;19966;-64
2023/05/24 04:22:52;;;;;;;;;;;12.00;83.10;;;;;;4985937;28;19930;-64
2023/05/24 04:25:17;;;;;;;;;;;12.00;83.10;;;;;;4987032;28;19918;-64
2023/05/24 04:27:43;;;;;;;;;;;12.00;83.10;;;;;;4986872;28;19957;-64
2023/05/24 04:30:09;;;;;;;;;;;12.00;83.20;;;;;;4987054;28;19964;-64
2023/05/24 04:32:35;;;;;;;;;;;12.00;83.20;;;;;;4986398;28;19914;-64
2023/05/24 04:35:04;;;;;;;;;;;12.00;83.20;;;;;;4985595;28;19944;-64
2023/05/24 04:37:30;;;;;;;;;;;12.00;83.30;;;;;;4985546;28;19913;-64
2023/05/24 04:39:56;;;;;;;;;;;12.00;83.30;;;;;;4986985;28;19914;-64
2023/05/24 04:42:22;;;;;;;;;;;12.00;83.20;;;;;;4985807;28;19936;-64
2023/05/24 04:44:47;;;;;;;;;;;12.00;83.40;;;;;;4986659;28;20640;-64
2023/05/24 04:47:13;;;;;;;;;;;12.00;83.30;;;;;;4986498;28;19924;-64
2023/05/24 04:49:38;;;;;;;;;;;12.00;83.30;;;;;;4986543;28;19913;-64
2023/05/24 04:52:05;;;;;;;;;;;12.00;83.40;;;;;;4984460;28;19949;-64
2023/05/24 04:54:30;;;;;;;;;;;11.90;83.40;;;;;;4986318;28;19979;-64
2023/05/24 04:56:56;;;;;;;;;;;11.90;83.60;;;;;;4986293;28;20636;-64
2023/05/24 04:59:21;;;;;;;;;;;11.80;83.70;;;;;;4986766;28;19949;-64
2023/05/24 05:01:47;;;;;;;;;;;11.90;84.00;;;;;;4986043;28;19966;-64
2023/05/24 05:04:12;;;;;;;;;;;11.80;84.00;;;;;;4986154;28;19917;-64
2023/05/24 05:06:39;;;;;;;;;;;11.80;84.30;;;;;;4986102;28;20513;-64
2023/05/24 05:09:08;;;;;;;;;;;11.80;84.00;;;;;;4986399;28;19914;-64
2023/05/24 05:11:33;;;;;;;;;;;11.80;84.20;;;;;;4985014;28;19917;-64
2023/05/24 05:13:59;;;;;;;;;;;11.80;84.20;;;;;;4985538;28;19913;-64
2023/05/24 05:16:24;;;;;;;;;;;11.80;84.20;;;;;;4966950;28;19921;-64
2023/05/24 05:18:50;;;;;;;;;;;11.80;84.20;;;;;;4966668;28;19914;-64
2023/05/24 05:21:16;;;;;;;;;;;11.80;84.20;;;;;;4977883;28;19918;-64
2023/05/24 05:23:41;;;;;;;;;;;11.80;84.20;;;;;;5088070;28;19916;-64
2023/05/24 05:26:07;;;;;;;;;;;11.80;84.20;;;;;;5017030;28;19913;-64
2023/05/24 05:28:32;;;;;;;;;;;11.90;84.30;;;;;;4986281;28;20544;-64
2023/05/24 05:30:58;;;;;;;;;;;11.90;84.30;;;;;;4986178;28;19914;-64
2023/05/24 05:33:24;;;;;;;;;;;11.90;84.30;;;;;;4985655;28;19914;-64
2023/05/24 05:35:49;;;;;;;;;;;11.90;84.90;;;;;;4985956;28;19914;-64
2023/05/24 05:38:15;;;;;;;;;;;11.90;84.30;;;;;;4984615;28;19921;-64
2023/05/24 05:40:40;;;;;;;;;;;11.90;84.40;;;;;;4986032;28;20004;-64
2023/05/24 05:43:07;;;;;;;;;;;11.90;84.40;;;;;;4983479;28;19915;-64
2023/05/24 05:45:33;;;;;;;;;;;11.90;84.40;;;;;;4986132;28;19909;-64
2023/05/24 05:47:59;;;;;;;;;;;11.90;84.50;;;;;;4986125;28;20288;-64
2023/05/24 05:50:24;;;;;;;;;;;11.90;84.50;;;;;;4985920;28;19928;-64
2023/05/24 05:52:50;;;;;;;;;;;11.90;84.40;;;;;;4985448;28;19914;-64
2023/05/24 05:55:15;;;;;;;;;;;11.90;84.40;;;;;;4985092;28;19914;-64
2023/05/24 05:57:41;;;;;;;;;;;12.00;84.50;;;;;;4985176;28;19949;-64
2023/05/24 06:00:07;;;;;;;;;;;12.00;84.50;;;;;;4985132;28;19910;-64
2023/05/24 06:02:33;;;;;;;;;;;12.00;84.40;;;;;;4984704;28;19980;-64
2023/05/24 06:04:59;;;;;;;;;;;12.00;84.30;;;;;;4985735;28;19914;-64
2023/05/24 06:07:24;;;;;;;;;;;12.10;84.20;;;;;;4988548;28;19937;-64
2023/05/24 06:09:50;;;;;;;;;;;12.10;84.20;;;;;;4987892;28;19914;-64
2023/05/24 06:12:15;;;;;;;;;;;12.20;84.20;;;;;;4988868;28;20373;-64
2023/05/24 06:14:41;;;;;;;;;;;12.20;84.20;;;;;;4984623;28;19919;-64
2023/05/24 06:17:06;;;;;;;;;;;12.20;84.10;;;;;;4969666;28;19910;-64
2023/05/24 06:19:32;;;;;;;;;;;12.20;84.00;;;;;;4968319;28;19914;-64
2023/05/24 06:21:57;;;;;;;;;;;12.30;84.10;;;;;;4968534;28;19917;-64
2023/05/24 06:24:23;;;;;;;;;;;12.40;84.00;;;;;;4968860;28;19925;-64
2023/05/24 06:26:50;;;;;;;;;;;12.30;84.60;;;;;;4987263;28;19933;-64
2023/05/24 06:29:15;;;;;;;;;;;12.40;84.00;;;;;;4988328;28;19921;-64
2023/05/24 06:31:42;;;;;;;;;;;12.40;83.90;;;;;;4987960;28;19913;-64
2023/05/24 06:34:07;;;;;;;;;;;12.50;83.90;;;;;;4988051;28;20324;-64
2023/05/24 06:36:34;;;;;;;;;;;12.50;83.90;;;;;;4987876;28;20043;-64
2023/05/24 06:39:02;;;;;;;;;;;12.50;83.80;;;;;;4986771;28;20410;-64
2023/05/24 06:41:28;;;;;;;;;;;12.60;83.80;;;;;;4986184;28;19913;-64
2023/05/24 06:43:54;;;;;;;;;;;12.60;83.80;;;;;;4986147;28;20688;-64
2023/05/24 06:46:19;;;;;;;;;;;12.60;83.80;;;;;;4987175;28;19971;-64
2023/05/24 06:48:45;;;;;;;;;;;12.70;83.70;;;;;;4987184;28;20278;-64
2023/05/24 06:51:10;;;;;;;;;;;12.70;83.70;;;;;;4987291;28;19921;-64
2023/05/24 06:53:36;;;;;;;;;;;12.70;83.70;;;;;;4986623;28;20014;-64
2023/05/24 06:56:01;;;;;;;;;;;12.70;83.70;;;;;;4987263;28;20369;-64
2023/05/24 06:58:27;;;;;;;;;;;12.80;83.60;;;;;;4986322;28;19909;-64
2023/05/24 07:00:53;;;;;;;;;;;12.80;83.60;;;;;;4986456;28;19914;-64
2023/05/24 07:03:18;;;;;;;;;;;12.80;83.60;;;;;;4984615;28;19914;-64
2023/05/24 07:05:43;;;;;;;;;;;12.90;83.60;;;;;;4986337;28;19913;-64
2023/05/24 07:08:09;;;;;;;;;;;12.90;83.50;;;;;;4987311;28;19921;-65
2023/05/24 07:10:35;;;;;;;;;;;12.90;83.50;;;;;;4987650;28;19913;-64
2023/05/24 07:13:00;;;;;;;;;;;13.00;83.40;;;;;;4987952;28;19916;-64
2023/05/24 07:15:26;;;;;;;;;;;13.00;83.40;;;;;;4976331;28;19941;-64
2023/05/24 07:17:52;;;;;;;;;;;13.10;83.50;;;;;;4968291;28;19957;-64
2023/05/24 07:20:17;;;;;;;;;;;13.10;83.40;;;;;;4967665;28;19964;-64
2023/05/24 07:22:43;;;;;;;;;;;13.10;83.30;;;;;;5014684;28;19916;-64
2023/05/24 07:25:08;;;;;;;;;;;13.20;83.20;;;;;;5062037;28;19933;-64
2023/05/24 07:27:34;;;;;;;;;;;13.20;83.20;;;;;;4987880;28;19914;-64
2023/05/24 07:30:00;;;;;;;;;;;13.20;83.10;;;;;;4988125;28;19918;-64
2023/05/24 07:32:26;;;;;;;;;;;13.20;83.10;;;;;;4987571;28;20432;-64
2023/05/24 07:34:51;;;;;;;;;;;13.30;83.20;;;;;;4988190;28;19917;-64
2023/05/24 07:37:17;;;;;;;;;;;13.30;83.10;;;;;;4987936;28;19991;-64
2023/05/24 07:39:42;;;;;;;;;;;13.30;83.20;;;;;;4988102;28;20343;-64
2023/05/24 07:42:08;;;;;;;;;;;13.30;83.20;;;;;;4985731;28;20564;-64
2023/05/24 07:44:33;;;;;;;;;;;13.30;83.20;;;;;;4987647;28;19924;-64
2023/05/24 07:47:01;;;;;;;;;;;13.30;83.20;;;;;;4987584;28;20364;-64
2023/05/24 07:49:26;;;;;;;;;;;13.40;83.20;;;;;;4987600;28;19913;-64
2023/05/24 07:51:52;;;;;;;;;;;13.40;83.00;;;;;;4987112;28;19921;-64
2023/05/24 07:54:18;;;;;;;;;;;13.40;83.00;;;;;;4987558;28;19910;-64
2023/05/24 07:56:43;;;;;;;;;;;13.50;82.90;;;;;;4984583;28;19967;-64
2023/05/24 07:59:09;;;;;;;;;;;13.50;83.40;;;;;;4986793;28;19938;-64
2023/05/24 08:01:35;;;;;;;;;;;13.60;82.70;;;;;;4987145;28;20480;-64
2023/05/24 08:04:02;;;;;;;;;;;13.60;82.60;;;;;;4987514;28;19914;-64
2023/05/24 08:06:34;;;;;;;;;;;13.60;82.70;;;;;;4986409;28;20412;-64
2023/05/24 08:09:03;;;;;;;;;;;13.60;82.60;;;;;;4987733;28;20362;-64
2023/05/24 08:11:28;;;;;;;;;;;13.60;82.60;;;;;;4986110;28;19986;-64
2023/05/24 08:13:54;;;;;;;;;;;13.70;82.60;;;;;;4986009;28;20009;-64
2023/05/24 08:16:19;;;;;;;;;;;13.70;82.50;;;;;;4967981;28;20606;-64
2023/05/24 08:18:45;;;;;;;;;;;13.70;82.50;;;;;;4967773;28;19914;-64
2023/05/24 08:21:10;;;;;;;;;;;13.70;82.40;;;;;;4966711;28;19911;-64
2023/05/24 08:23:36;;;;;;;;;;;13.80;82.50;;;;;;4967668;28;20282;-64
2023/05/24 08:26:01;;;;;;;;;;;13.80;82.40;;;;;;4980560;28;19918;-64
2023/05/24 08:28:28;;;;;;;;;;;13.80;82.40;;;;;;4986715;28;19952;-64
2023/05/24 08:30:53;;;;;;;;;;;13.80;82.40;;;;;;4986816;28;19921;-64
2023/05/24 08:33:19;;;;;;;;;;;13.80;82.40;;;;;;4986634;28;19914;-64
2023/05/24 08:35:45;;;;;;;;;;;13.80;82.50;;;;;;4987109;28;19921;-64
2023/05/24 08:38:10;;;;;;;;;;;13.80;82.50;;;;;;4987080;28;19957;-64
2023/05/24 08:40:36;;;;;;;;;;;13.80;82.60;;;;;;4987246;28;20295;-64
2023/05/24 08:43:01;;;;;;;;;;;13.80;82.60;;;;;;4984910;28;19939;-64
2023/05/24 08:45:32;;;;;;;;;;;13.90;82.60;;;;;;4985532;28;20410;-64
2023/05/24 08:47:58;;;;;;;;;;;13.90;82.60;;;;;;4986807;28;20397;-64
2023/05/24 08:50:24;;;;;;;;;;;13.90;82.50;;;;;;4987100;28;19918;-64
2023/05/24 08:52:50;;;;;;;;;;;13.90;82.40;;;;;;4986571;28;20386;-64
2023/05/24 08:55:16;;;;;;;;;;;14.00;82.20;;;;;;4985582;28;20020;-64
2023/05/24 08:57:42;;;;;;;;;;;14.10;82.10;;;;;;4986726;28;20402;-64
2023/05/24 09:00:10;;;;;;;;;;;14.20;81.90;;;;;;4986923;28;19938;-64
2023/05/24 09:02:39;;;;;;;;;;;14.20;81.70;;;;;;4986317;28;20405;-64
2023/05/24 09:05:08;;;;;;;;;;;14.20;81.60;;;;;;4986715;28;19925;-64
2023/05/24 09:07:34;;;;;;;;;;;14.20;81.60;;;;;;4986556;28;19921;-64
2023/05/24 09:10:03;;;;;;;;;;;14.30;81.70;;;;;;4986530;28;19913;-64
2023/05/24 09:12:30;;;;;;;;;;;14.30;81.70;;;;;;4984728;28;19921;-64
2023/05/24 09:14:56;;;;;;;;;;;14.30;81.60;;;;;;4978599;28;20379;-64
2023/05/24 09:17:22;;;;;;;;;;;14.40;81.50;;;;;;4971791;28;20562;-64
2023/05/24 09:19:49;;;;;;;;;;;14.40;81.30;;;;;;5087226;28;19985;-64
2023/05/24 09:22:18;;;;;;;;;;;14.50;81.30;;;;;;5086809;28;19916;-64
2023/05/24 09:24:47;;;;;;;;;;;14.60;81.00;;;;;;5077641;28;19927;-64
2023/05/24 09:27:16;;;;;;;;;;;14.60;80.90;;;;;;4986290;28;19918;-64
2023/05/24 09:29:43;;;;;;;;;;;14.70;80.70;;;;;;4986451;28;19916;-64
2023/05/24 09:32:08;;;;;;;;;;;14.70;80.70;;;;;;4985867;28;20056;-64
2023/05/24 09:34:37;;;;;;;;;;;14.70;80.60;;;;;;4986334;28;20009;-64
2023/05/24 09:37:04;;;;;;;;;;;14.80;80.40;;;;;;4986230;28;19921;-64
2023/05/24 09:39:30;;;;;;;;;;;14.80;80.40;;;;;;4987249;28;19914;-64
2023/05/24 09:41:56;;;;;;;;;;;14.90;80.50;;;;;;4987470;28;19914;-64
2023/05/24 09:44:28;;;;;;;;;;;14.80;80.50;;;;;;4987017;28;20593;-64
2023/05/24 09:47:00;;;;;;;;;;;14.80;81.20;;;;;;4982727;28;19960;-64
2023/05/24 09:49:25;;;;;;;;;;;14.80;80.80;;;;;;5014839;28;19925;-64
2023/05/24 09:51:51;;;;;;;;;;;14.80;80.70;;;;;;4987834;28;19910;-64
2023/05/24 09:54:17;;;;;;;;;;;14.80;80.70;;;;;;4989634;28;19910;-64
2023/05/24 09:56:45;;;;;;;;;;;14.80;80.70;;;;;;4989561;28;19917;-64
2023/05/24 09:59:10;;;;;;;;;;;14.80;80.60;;;;;;4987788;28;19914;-64
2023/05/24 10:01:36;;;;;;;;;;;14.90;80.60;;;;;;4989315;28;19921;-64
2023/05/24 10:04:05;;;;;;;;;;;14.90;80.50;;;;;;4988683;28;19953;-64
2023/05/24 10:06:33;;;;;;;;;;;15.00;80.20;;;;;;4989080;28;19914;-64
2023/05/24 10:08:59;;;;;;;;;;;15.10;80.10;;;;;;4989315;28;19921;-64
2023/05/24 10:11:25;;;;;;;;;;;15.10;79.90;;;;;;4989339;28;19914;-64
2023/05/24 10:13:51;;;;;;;;;;;15.20;79.90;;;;;;4989000;28;19921;-64
2023/05/24 10:16:17;;;;;;;;;;;15.30;79.70;;;;;;4970411;28;19942;-64
2023/05/24 10:18:42;;;;;;;;;;;15.30;79.50;;;;;;4969428;28;19964;-64
2023/05/24 10:21:09;;;;;;;;;;;15.30;79.50;;;;;;4969730;28;20367;-64
2023/05/24 10:23:36;;;;;;;;;;;15.30;79.40;;;;;;4969180;28;19922;-64
2023/05/24 10:26:08;;;;;;;;;;;15.40;79.50;;;;;;4982016;28;19910;-64
2023/05/24 10:28:35;;;;;;;;;;;15.40;79.50;;;;;;4987514;28;19914;-64
2023/05/24 10:31:01;;;;;;;;;;;15.30;79.60;;;;;;4988932;28;20001;-64
2023/05/24 10:33:27;;;;;;;;;;;15.30;80.50;;;;;;4988285;28;19985;-64
2023/05/24 10:35:52;;;;;;;;;;;15.30;79.90;;;;;;4988719;28;19921;-64
2023/05/24 10:38:22;;;;;;;;;;;15.20;80.00;;;;;;4988597;28;19913;-64
2023/05/24 10:40:47;;;;;;;;;;;15.20;80.00;;;;;;4988613;28;19914;-64
2023/05/24 10:43:15;;;;;;;;;;;15.20;80.70;;;;;;4987782;28;19939;-64
2023/05/24 10:45:40;;;;;;;;;;;15.20;80.00;;;;;;4988449;28;20348;-64
2023/05/24 10:48:12;;;;;;;;;;;15.20;80.00;;;;;;4988293;28;19914;-64
2023/05/24 10:50:38;;;;;;;;;;;15.20;80.00;;;;;;4988316;28;20008;-64
2023/05/24 10:53:13;;;;;;;;;;;15.30;80.00;;;;;;4986499;28;20000;-64
2023/05/24 10:55:54;;;;;;;;;;;15.30;79.90;;;;;;4988463;28;19940;-64
2023/05/24 10:58:22;;;;;;;;;;;15.30;80.00;;;;;;4988127;28;19921;-64
2023/05/24 11:00:50;;;;;;;;;;;15.40;79.80;;;;;;4988585;28;20371;-64
2023/05/24 11:03:22;;;;;;;;;;;15.50;79.40;;;;;;4987705;28;19925;-64
2023/05/24 11:05:51;;;;;;;;;;;15.60;79.20;;;;;;4987138;28;19945;-64
2023/05/24 11:08:34;;;;;;;;;;;15.60;79.00;;;;;;4988323;28;19924;-64
2023/05/24 11:11:10;;;;;;;;;;;15.70;78.90;;;;;;4992071;28;20422;-64
2023/05/24 11:13:36;;;;;;;;;;;15.70;78.70;;;;;;5089717;28;19919;-64
2023/05/24 11:16:02;;;;;;;;;;;15.80;78.70;;;;;;5001892;28;20542;-64
2023/05/24 11:18:27;;;;;;;;;;;15.80;78.60;;;;;;4987831;28;19918;-64
2023/05/24 11:20:53;;;;;;;;;;;15.80;78.60;;;;;;4988101;28;19918;-64
2023/05/24 11:23:19;;;;;;;;;;;15.80;78.70;;;;;;4987540;28;19922;-64
2023/05/24 11:25:45;;;;;;;;;;;15.80;78.60;;;;;;4988109;28;19942;-64
2023/05/24 11:28:11;;;;;;;;;;;15.80;78.80;;;;;;4986476;28;19917;-64
2023/05/24 11:30:40;;;;;;;;;;;15.70;78.70;;;;;;4988066;28;20432;-64
2023/05/24 11:33:19;;;;;;;;;;;15.70;79.10;;;;;;4987331;28;19914;-64
2023/05/24 11:35:45;;;;;;;;;;;15.70;79.10;;;;;;4986661;28;20342;-64
2023/05/24 11:38:12;;;;;;;;;;;15.60;79.40;;;;;;4970251;28;19952;-64
2023/05/24 11:40:43;;;;;;;;;;;15.60;79.40;;;;;;4988025;28;19921;-64
2023/05/24 11:43:18;;;;;;;;;;;15.60;79.70;;;;;;4979218;28;19928;-64
2023/05/24 11:45:48;;;;;;;;;;;15.60;80.50;;;;;;4978753;28;20554;-64
2023/05/24 11:48:14;;;;;;;;;;;15.50;79.80;;;;;;5026736;28;19930;-64
2023/05/24 11:50:40;;;;;;;;;;;15.50;79.90;;;;;;5048030;28;20300;-64
2023/05/24 11:53:05;;;;;;;;;;;15.50;79.90;;;;;;5090078;28;19912;-64
2023/05/24 11:55:31;;;;;;;;;;;15.50;80.00;;;;;;5045995;28;20259;-64
2023/05/24 11:57:58;;;;;;;;;;;15.50;80.00;;;;;;4987534;28;20570;-64
2023/05/24 12:00:24;;;;;;;;;;;15.50;80.20;;;;;;4987851;28;20020;-64
2023/05/24 12:02:51;;;;;;;;;;;15.50;80.20;;;;;;4986051;28;19914;-64
2023/05/24 12:05:17;;;;;;;;;;;15.50;80.20;;;;;;4987904;28;19914;-64
2023/05/24 12:07:47;;;;;;;;;;;15.50;80.20;;;;;;4987653;28;19936;-64
2023/05/24 12:10:15;;;;;;;;;;;15.50;80.20;;;;;;4987812;28;19963;-64
2023/05/24 12:12:44;;;;;;;;;;;15.50;80.10;;;;;;4987546;28;20310;-64
2023/05/24 12:15:10;;;;;;;;;;;15.50;80.00;;;;;;4987345;28;19998;-64
2023/05/24 12:17:36;;;;;;;;;;;15.50;80.50;;;;;;4987353;28;20398;-64
2023/05/24 12:20:02;;;;;;;;;;;15.50;79.80;;;;;;4987555;28;19914;-64
2023/05/24 12:22:30;;;;;;;;;;;15.50;79.80;;;;;;4987029;28;19967;-64
2023/05/24 12:24:56;;;;;;;;;;;15.60;79.70;;;;;;4987303;28;19983;-64
2023/05/24 12:27:26;;;;;;;;;;;15.60;79.70;;;;;;4987240;28;19914;-64
2023/05/24 12:29:51;;;;;;;;;;;15.60;79.50;;;;;;4987504;28;19916;-64
2023/05/24 12:32:17;;;;;;;;;;;15.70;79.30;;;;;;4987182;28;19913;-64
2023/05/24 12:34:43;;;;;;;;;;;15.80;79.10;;;;;;4986103;28;20341;-64
2023/05/24 12:37:10;;;;;;;;;;;15.90;78.80;;;;;;4985645;28;19917;-64
2023/05/24 12:39:36;;;;;;;;;;;15.90;78.60;;;;;;4987579;28;19917;-64
2023/05/24 12:42:02;;;;;;;;;;;16.00;78.40;;;;;;4980670;28;19933;-64
2023/05/24 12:44:29;;;;;;;;;;;16.00;78.50;;;;;;4984626;28;19922;-64
2023/05/24 12:46:55;;;;;;;;;;;16.00;78.50;;;;;;4986777;28;19913;-65
2023/05/24 12:49:21;;;;;;;;;;;16.10;78.60;;;;;;4986766;28;20000;-64
2023/05/24 12:51:47;;;;;;;;;;;16.00;78.80;;;;;;4985405;28;20092;-64
2023/05/24 12:54:13;;;;;;;;;;;16.00;78.90;;;;;;4986897;28;19917;-64
2023/05/24 12:56:39;;;;;;;;;;;16.00;79.00;;;;;;4986893;28;19920;-64
2023/05/24 12:59:04;;;;;;;;;;;16.00;79.20;;;;;;4986764;28;19917;-64
2023/05/24 13:01:30;;;;;;;;;;;16.00;79.30;;;;;;4986652;28;20325;-64
2023/05/24 13:03:55;;;;;;;;;;;16.00;79.10;;;;;;4984801;28;19918;-64
2023/05/24 13:06:21;;;;;;;;;;;16.10;79.10;;;;;;4985333;28;19917;-64
2023/05/24 13:08:46;;;;;;;;;;;16.10;79.00;;;;;;4986559;28;19997;-64
2023/05/24 13:11:12;;;;;;;;;;;16.10;78.80;;;;;;4986685;28;19918;-65
2023/05/24 13:13:38;;;;;;;;;;;16.10;78.70;;;;;;4985525;28;20375;-65
2023/05/24 13:16:07;;;;;;;;;;;16.20;78.60;;;;;;5035617;28;19943;-64
2023/05/24 13:18:33;;;;;;;;;;;16.30;78.40;;;;;;5087817;28;19916;-64
2023/05/24 13:20:59;;;;;;;;;;;16.30;78.40;;;;;;5087842;28;20677;-64
2023/05/24 13:23:28;;;;;;;;;;;16.30;78.40;;;;;;5087464;28;19920;-65
2023/05/24 13:25:56;;;;;;;;;;;16.30;78.50;;;;;;5025950;28;20427;-65
2023/05/24 13:28:21;;;;;;;;;;;16.40;78.40;;;;;;4985532;28;19963;-64
2023/05/24 13:30:47;;;;;;;;;;;16.40;78.30;;;;;;4985480;28;19913;-64
2023/05/24 13:33:13;;;;;;;;;;;16.50;78.30;;;;;;4985058;28;19914;-64
2023/05/24 13:35:38;;;;;;;;;;;16.50;78.10;;;;;;4984358;28;20363;-64
2023/05/24 13:38:04;;;;;;;;;;;16.60;78.00;;;;;;4983785;28;19936;-65
2023/05/24 13:40:30;;;;;;;;;;;16.60;78.00;;;;;;4984185;28;20011;-65
2023/05/24 13:42:56;;;;;;;;;;;16.70;77.90;;;;;;4984693;28;19944;-65
2023/05/24 13:45:22;;;;;;;;;;;16.80;77.80;;;;;;4985015;28;20274;-65
2023/05/24 13:47:47;;;;;;;;;;;16.80;77.70;;;;;;4985389;28;20362;-65
2023/05/24 13:50:13;;;;;;;;;;;16.90;77.70;;;;;;4985452;28;19920;-65
2023/05/24 13:52:38;;;;;;;;;;;16.90;77.80;;;;;;4983927;28;19918;-65
2023/05/24 13:55:04;;;;;;;;;;;16.90;77.80;;;;;;4985545;28;19914;-65
2023/05/24 13:57:30;;;;;;;;;;;16.90;77.80;;;;;;4985323;28;20020;-64
2023/05/24 13:59:57;;;;;;;;;;;16.90;77.90;;;;;;4984718;28;19925;-64
2023/05/24 14:02:23;;;;;;;;;;;16.90;77.90;;;;;;4984322;28;20592;-65
2023/05/24 14:04:48;;;;;;;;;;;16.90;78.00;;;;;;4984785;28;19918;-65
2023/05/24 14:07:14;;;;;;;;;;;16.90;78.00;;;;;;4985034;28;19914;-64
2023/05/24 14:09:40;;;;;;;;;;;16.90;78.10;;;;;;4985220;28;19913;-65
2023/05/24 14:12:07;;;;;;;;;;;16.90;78.10;;;;;;4985021;28;20412;-64